Time;durP1;ratioP1;P1;durP2;ratioP2;P2;SDS_P1;SDS_P2;PMS_P1;PMS_P2;Temp;Humidity;BMP_temperature;BMP_pressure;BME280_temperature;BME280_humidity;BME280_pressure;Samples;Min_cycle;Max_cycle;Signal;HPM_P1;HPM_P2
2022/12/31 00:00:54;;;;;;;6.20;4.80;;;;;;;-146.25;95.25;52447.28;2071086;28;36939;-73
2022/12/31 00:01:56;;;;;;;6.07;4.80;;;;;;;-146.25;95.13;52473.63;2076515;28;40429;-73
2022/12/31 00:02:58;;;;;;;6.60;4.70;;;;;;;-146.25;95.20;52420.91;2080008;28;20089;-73
2022/12/31 00:04:00;;;;;;;8.77;4.53;;;;;;;-146.25;95.42;52441.19;2078414;28;36939;-72
2022/12/31 00:05:02;;;;;;;5.22;4.70;;;;;;;-146.25;95.31;52469.56;2079778;28;37244;-73
2022/12/31 00:06:21;;;;;;;7.72;4.78;;;;;;;-146.25;95.38;52465.53;2079710;28;37389;-72
2022/12/31 00:07:22;;;;;;;7.00;4.60;;;;;;;-146.25;95.62;52467.56;2079914;28;39505;-73
2022/12/31 00:08:24;;;;;;;7.20;4.93;;;;;;;-146.25;95.45;52443.22;2080148;28;38194;-72
2022/12/31 00:09:26;;;;;;;7.80;4.40;;;;;;;-146.25;95.47;52433.06;2080099;28;22885;-72
2022/12/31 00:10:29;;;;;;;5.88;4.88;;;;;;;-146.25;95.22;52475.66;2079358;28;41591;-73
2022/12/31 00:11:33;;;;;;;6.43;4.82;;;;;;;-146.25;95.18;52449.31;2070849;28;20904;-73
2022/12/31 00:12:36;;;;;;;6.85;4.72;;;;;;;-146.25;95.27;52451.31;2073144;28;20168;-73
2022/12/31 00:13:38;;;;;;;5.28;4.40;;;;;;;-146.25;94.89;52445.25;2079496;28;39367;-72
2022/12/31 00:14:39;;;;;;;5.57;4.65;;;;;;;-146.25;94.99;52431.06;2070696;28;37447;-73
2022/12/31 00:15:44;;;;;;;4.55;4.15;;;;;;;-146.25;95.05;52433.06;2070780;28;41348;-73
2022/12/31 00:16:45;;;;;;;5.63;4.45;;;;;;;-146.25;94.94;52477.69;2073017;28;40644;-73
2022/12/31 00:17:47;;;;;;;5.20;4.70;;;;;;;-146.25;94.72;52427.00;2077102;28;20080;-73
2022/12/31 00:18:53;;;;;;;6.45;4.88;;;;;;;-146.25;94.54;52424.97;2078467;28;41338;-72
2022/12/31 00:19:57;;;;;;;5.30;4.20;;;;;;;-146.25;94.31;52467.56;2078472;28;40721;-73
2022/12/31 00:21:00;;;;;;;6.10;4.53;;;;;;;-146.25;94.88;52435.09;2071969;28;38216;-73
2022/12/31 00:22:02;;;;;;;6.35;4.70;;;;;;;-146.25;94.77;52412.81;2077013;28;41337;-72
2022/12/31 00:23:07;;;;;;;7.07;4.80;;;;;;;-146.25;94.48;52433.06;2079446;28;35714;-73
2022/12/31 00:24:11;;;;;;;6.30;4.05;;;;;;;-146.25;94.26;52461.47;2082185;28;20839;-73
2022/12/31 00:25:14;;;;;;;5.50;4.45;;;;;;;-146.25;94.49;52471.59;2070864;28;20046;-72
2022/12/31 00:26:23;;;;;;;5.05;4.40;;;;;;;-146.25;94.48;52451.31;2078137;28;20026;-73
2022/12/31 00:27:25;;;;;;;8.07;5.03;;;;;;;-146.25;94.70;52435.09;2088302;28;40911;-73
2022/12/31 00:28:26;;;;;;;6.03;4.40;;;;;;;-146.25;94.62;52461.47;2082732;28;32291;-73
2022/12/31 00:29:28;;;;;;;6.20;4.22;;;;;;;-146.25;94.72;52469.56;2079691;28;40095;-73
2022/12/31 00:30:30;;;;;;;5.97;4.65;;;;;;;-146.25;94.88;52465.53;2086873;28;25721;-73
2022/12/31 00:31:36;;;;;;;6.60;4.50;;;;;;;-146.25;94.92;52463.50;2088673;28;26468;-73
2022/12/31 00:32:38;;;;;;;5.50;4.60;;;;;;;-146.25;95.10;52465.53;2079323;28;35267;-73
2022/12/31 00:33:40;;;;;;;5.63;4.55;;;;;;;-146.25;95.33;52479.72;2077486;28;24749;-72
2022/12/31 00:34:42;;;;;;;7.28;4.18;;;;;;;-146.25;95.28;52461.47;2077822;28;39271;-73
2022/12/31 00:35:43;;;;;;;7.60;5.15;;;;;;;-146.25;95.49;52451.31;2079160;28;38713;-73
2022/12/31 00:36:45;;;;;;;6.72;4.80;;;;;;;-146.25;95.61;52427.00;2079900;28;34392;-72
2022/12/31 00:37:47;;;;;;;6.13;4.88;;;;;;;-146.25;95.38;52453.34;2079836;28;34635;-73
2022/12/31 00:38:51;;;;;;;7.35;5.28;;;;;;;-146.25;95.64;52429.03;2079885;28;39585;-73
2022/12/31 00:39:53;;;;;;;5.95;5.28;;;;;;;-146.25;96.01;52479.72;2080649;28;20049;-73
2022/12/31 00:40:55;;;;;;;7.25;5.32;;;;;;;-146.25;96.08;52445.25;2079105;28;41268;-73
2022/12/31 00:41:56;;;;;;;6.18;5.30;;;;;;;-146.25;96.56;52465.53;2079351;28;33342;-73
2022/12/31 00:42:58;;;;;;;7.63;5.75;;;;;;;-146.25;96.76;52439.16;2070279;28;39542;-73
2022/12/31 00:44:00;;;;;;;6.00;5.40;;;;;;;-146.25;97.02;52512.16;2071257;28;20873;-73
2022/12/31 00:45:02;;;;;;;7.10;5.63;;;;;;;-146.25;97.02;52441.19;2071161;28;41129;-73
2022/12/31 00:46:06;;;;;;;6.57;5.68;;;;;;;-146.25;97.68;52471.59;2071309;28;37923;-73
2022/12/31 00:47:08;;;;;;;7.85;6.05;;;;;;;-146.25;97.63;52420.91;2071640;28;35134;-73
2022/12/31 00:48:09;;;;;;;8.02;6.43;;;;;;;-146.25;97.79;52457.41;2080803;28;20050;-73
2022/12/31 00:49:11;;;;;;;7.95;6.53;;;;;;;-146.25;98.10;52469.56;2080040;28;24656;-73
2022/12/31 00:50:13;;;;;;;9.02;6.07;;;;;;;-146.25;98.32;52414.84;2080018;28;35594;-72
2022/12/31 00:51:18;;;;;;;8.90;6.78;;;;;;;-146.25;98.66;52463.50;2070672;28;40588;-72
2022/12/31 00:52:20;;;;;;;7.60;6.43;;;;;;;-146.25;99.19;52443.22;2063757;28;36898;-72
2022/12/31 00:53:23;;;;;;;7.57;6.75;;;;;;;-146.25;99.52;52439.16;2070968;28;38003;-72
2022/12/31 00:54:24;;;;;;;8.55;7.10;;;;;;;-146.25;100.00;52441.19;2077973;28;37227;-72
2022/12/31 00:55:26;;;;;;;8.60;6.40;;;;;;;-146.25;100.00;52451.31;2079154;28;20879;-73
2022/12/31 00:56:29;;;;;;;10.98;7.68;;;;;;;-146.25;100.00;52455.38;2079578;28;40598;-73
2022/12/31 00:57:31;;;;;;;9.63;7.45;;;;;;;-146.25;100.00;52433.06;2079263;28;36237;-73
2022/12/31 00:58:34;;;;;;;8.13;7.32;;;;;;;-146.25;100.00;52475.66;2079494;28;37591;-73
2022/12/31 00:59:35;;;;;;;8.38;7.43;;;;;;;-146.25;100.00;52422.94;2080023;28;27386;-73
2022/12/31 01:00:37;;;;;;;8.52;7.13;;;;;;;-146.25;100.00;52429.03;2078263;28;38557;-72
2022/12/31 01:01:40;;;;;;;10.00;7.72;;;;;;;-146.25;100.00;52447.28;2079391;28;20042;-73
2022/12/31 01:02:42;;;;;;;10.63;7.72;;;;;;;-146.25;100.00;52485.81;2078587;28;41135;-72
2022/12/31 01:03:46;;;;;;;8.85;7.95;;;;;;;-146.25;100.00;52493.91;2062166;28;40456;-73
2022/12/31 01:04:48;;;;;;;10.77;8.23;;;;;;;-146.25;100.00;52479.72;2071163;28;37549;-73
2022/12/31 01:05:50;;;;;;;9.38;7.75;;;;;;;-146.25;100.00;52467.56;2079690;28;40735;-73
2022/12/31 01:06:52;;;;;;;11.18;8.65;;;;;;;-146.25;100.00;52465.53;2079605;28;21365;-73
2022/12/31 01:07:54;;;;;;;9.40;8.40;;;;;;;-146.25;100.00;52481.75;2079302;28;26373;-72
2022/12/31 01:08:55;;;;;;;9.77;8.13;;;;;;;-146.25;100.00;52469.56;2079560;28;39361;-73
2022/12/31 01:09:57;;;;;;;10.27;8.80;;;;;;;-146.25;100.00;52429.03;2079670;28;22583;-72
2022/12/31 01:11:18;;;;;;;11.07;8.30;;;;;;;-146.25;100.00;52457.41;2080122;28;37108;-72
2022/12/31 01:12:20;;;;;;;10.68;8.35;;;;;;;-146.25;100.00;52489.84;2078947;28;37499;-73
2022/12/31 01:13:22;;;;;;;9.05;7.75;;;;;;;-146.25;100.00;52455.38;2079420;28;35748;-73
2022/12/31 01:14:23;;;;;;;9.52;8.23;;;;;;;-146.25;100.00;52471.59;2077153;28;40521;-72
2022/12/31 01:15:27;;;;;;;11.35;8.88;;;;;;;-146.25;100.00;52429.03;2080372;28;20919;-73
2022/12/31 01:16:33;;;;;;;11.32;8.82;;;;;;;-146.25;100.00;52475.66;2079343;28;43357;-74
2022/12/31 01:17:35;;;;;;;11.38;7.70;;;;;;;-146.25;100.00;52481.75;2079990;28;35794;-74
2022/12/31 01:18:37;;;;;;;12.20;8.65;;;;;;;-146.25;100.00;52427.00;2079655;28;37554;-73
2022/12/31 01:19:39;;;;;;;11.25;7.95;;;;;;;-146.25;100.00;52514.19;2080239;28;32864;-74
2022/12/31 01:20:42;;;;;;;12.85;8.73;;;;;;;-146.25;100.00;52463.50;2080336;28;20896;-74
2022/12/31 01:21:45;;;;;;;10.75;8.88;;;;;;;-146.25;100.00;52469.56;2078952;28;40634;-73
2022/12/31 01:22:47;;;;;;;8.98;8.07;;;;;;;-146.25;100.00;52461.47;2078794;28;38313;-73
2022/12/31 01:23:51;;;;;;;10.57;8.65;;;;;;;-146.25;100.00;52473.63;2077860;28;39464;-74
2022/12/31 01:24:53;;;;;;;10.90;8.93;;;;;;;-146.25;100.00;52497.97;2079074;28;36455;-73
2022/12/31 01:25:54;;;;;;;11.55;8.23;;;;;;;-146.25;100.00;52495.94;2080494;28;20038;-74
2022/12/31 01:26:56;;;;;;;10.55;8.50;;;;;;;-146.25;100.00;52483.78;2079468;28;38498;-73
2022/12/31 01:27:59;;;;;;;11.82;9.02;;;;;;;-146.25;100.00;52459.44;2080402;28;20042;-73
2022/12/31 01:29:01;;;;;;;13.20;8.52;;;;;;;-146.25;100.00;52461.47;2079676;28;35935;-74
2022/12/31 01:30:04;;;;;;;11.80;8.80;;;;;;;-146.25;100.00;52422.94;2079625;28;38349;-74
2022/12/31 01:31:12;;;;;;;11.20;8.40;;;;;;;-146.25;100.00;52491.88;2080320;28;20231;-73
2022/12/31 01:32:14;;;;;;;10.15;8.30;;;;;;;-146.25;100.00;52469.56;2079145;28;39701;-74
2022/12/31 01:33:16;;;;;;;15.15;9.13;;;;;;;-146.25;100.00;52453.34;2078913;28;36314;-73
2022/12/31 01:34:17;;;;;;;12.20;9.00;;;;;;;-146.25;100.00;52477.69;2078326;28;38799;-73
2022/12/31 01:35:19;;;;;;;12.05;9.13;;;;;;;-146.25;100.00;52461.47;2078816;28;42064;-74
2022/12/31 01:36:26;;;;;;;12.95;9.25;;;;;;;-146.25;100.00;52445.25;2072238;28;20835;-73
2022/12/31 01:37:27;;;;;;;10.13;9.00;;;;;;;-146.25;100.00;52435.09;2071167;28;38768;-73
2022/12/31 01:38:33;;;;;;;10.38;8.80;;;;;;;-146.25;100.00;52497.97;2071352;28;37318;-73
2022/12/31 01:39:35;;;;;;;11.80;9.05;;;;;;;-146.25;100.00;52495.94;2073931;28;20047;-74
2022/12/31 01:40:39;;;;;;;12.32;9.32;;;;;;;-146.25;100.00;52445.25;2079633;28;39742;-74
2022/12/31 01:41:54;;;;;;;13.45;9.40;;;;;;;-146.25;100.00;52437.13;2079767;28;21517;-73
2022/12/31 01:42:58;;;;;;;10.73;9.48;;;;;;;-146.25;100.00;52497.97;2076784;28;37479;-73
2022/12/31 01:44:25;;;;;;;10.65;8.70;;;;;;;-146.25;100.00;52469.56;2071695;28;37564;-74
2022/12/31 01:45:28;;;;;;;11.38;9.13;;;;;;;-146.25;100.00;52439.16;2079082;28;37780;-74
2022/12/31 01:46:46;;;;;;;10.23;8.95;;;;;;;-146.25;100.00;52449.31;2079825;28;20090;-74
2022/12/31 01:48:15;;;;;;;10.13;8.82;;;;;;;-146.25;100.00;52510.13;2078314;28;42232;-73
2022/12/31 01:49:50;;;;;;;12.27;8.85;;;;;;;-146.25;100.00;52510.13;2072242;28;20815;-73
2022/12/31 01:50:53;;;;;;;10.80;9.25;;;;;;;-146.25;100.00;52431.06;2079619;28;20053;-73
2022/12/31 01:52:04;;;;;;;12.32;9.57;;;;;;;-146.25;100.00;52493.91;2079908;28;20042;-74
2022/12/31 01:53:13;;;;;;;11.23;8.82;;;;;;;-146.25;100.00;52465.53;2079136;28;41457;-73
2022/12/31 01:54:24;;;;;;;11.00;8.95;;;;;;;-146.25;100.00;52475.66;2076507;28;40474;-74
2022/12/31 01:55:35;;;;;;;11.75;9.05;;;;;;;-146.25;100.00;52520.28;2076893;28;40145;-73
2022/12/31 01:56:40;;;;;;;10.38;8.63;;;;;;;-146.25;100.00;52463.50;2064298;28;41252;-74
2022/12/31 01:57:46;;;;;;;10.85;9.60;;;;;;;-146.25;100.00;52437.13;2063651;28;41604;-74
2022/12/31 01:58:53;;;;;;;11.35;9.20;;;;;;;-146.25;100.00;52485.81;2072406;28;20043;-73
2022/12/31 01:59:55;;;;;;;11.43;8.93;;;;;;;-146.25;100.00;52481.75;2078893;28;43035;-73
2022/12/31 02:00:58;;;;;;;14.20;9.48;;;;;;;-146.25;100.00;52453.34;2078866;28;36460;-73
2022/12/31 02:02:00;;;;;;;13.05;9.02;;;;;;;-146.25;100.00;52451.31;2078686;28;28937;-73
2022/12/31 02:03:06;;;;;;;11.00;8.43;;;;;;;-146.25;100.00;52469.56;2078734;28;39228;-74
2022/12/31 02:04:12;;;;;;;10.45;8.85;;;;;;;-146.25;100.00;52479.72;2076958;28;37477;-73
2022/12/31 02:05:32;;;;;;;11.95;9.02;;;;;;;-146.25;100.00;52451.31;2065013;28;39706;-73
2022/12/31 02:06:48;;;;;;;10.27;8.02;;;;;;;-146.25;100.00;52445.25;2074570;28;20100;-74
2022/12/31 02:07:52;;;;;;;10.95;8.48;;;;;;;-146.25;100.00;52455.38;2071125;28;40615;-73
2022/12/31 02:08:56;;;;;;;9.20;8.02;;;;;;;-146.25;100.00;52451.31;2072522;28;38719;-74
2022/12/31 02:09:59;;;;;;;12.27;8.48;;;;;;;-146.25;100.00;52439.16;2073622;28;20169;-74
2022/12/31 02:11:00;;;;;;;10.60;8.23;;;;;;;-146.25;100.00;52489.84;2078666;28;37895;-74
2022/12/31 02:12:03;;;;;;;10.23;8.32;;;;;;;-146.25;100.00;52463.50;2078444;28;20038;-74
2022/12/31 02:13:06;;;;;;;10.07;8.23;;;;;;;-146.25;100.00;52445.25;2079997;28;20038;-73
2022/12/31 02:14:21;;;;;;;10.70;8.25;;;;;;;-146.25;100.00;52467.56;2078738;28;37880;-73
2022/12/31 02:15:38;;;;;;;11.45;9.05;;;;;;;-146.25;100.00;52422.94;2078665;28;38689;-73
2022/12/31 02:17:10;;;;;;;8.95;7.22;;;;;;;-146.25;100.00;52485.81;2079437;28;39998;-71
2022/12/31 02:18:18;;;;;;;10.27;8.00;;;;;;;-146.25;100.00;52461.47;2079362;28;41010;-72
2022/12/31 02:20:03;;;;;;;13.30;8.45;;;;;;;-146.25;100.00;52429.03;2080249;28;20880;-73
2022/12/31 02:21:31;;;;;;;9.30;7.13;;;;;;;-146.25;100.00;52459.44;2078282;28;40913;-72
2022/12/31 02:22:51;;;;;;;9.15;7.78;;;;;;;-146.25;100.00;52471.59;2079705;28;21012;-72
2022/12/31 02:24:23;;;;;;;9.52;7.65;;;;;;;-146.25;100.00;52491.88;2079568;28;39210;-73
2022/12/31 02:26:02;;;;;;;11.27;7.72;;;;;;;-146.25;100.00;52487.81;2080899;28;39279;-72
2022/12/31 02:27:28;;;;;;;9.88;7.60;;;;;;;-146.25;100.00;52445.25;2079507;28;41106;-72
2022/12/31 02:28:55;;;;;;;8.48;7.68;;;;;;;-146.25;100.00;52437.13;2078005;28;39533;-72
2022/12/31 02:30:02;;;;;;;8.52;7.13;;;;;;;-146.25;100.00;52451.31;2073723;28;40030;-72
2022/12/31 02:31:30;;;;;;;8.35;7.10;;;;;;;-146.25;100.00;52443.22;2075800;28;39561;-72
2022/12/31 02:32:48;;;;;;;9.43;7.28;;;;;;;-146.25;100.00;52465.53;2080684;28;38773;-72
2022/12/31 02:34:07;;;;;;;9.00;8.00;;;;;;;-146.25;100.00;52457.41;2079838;28;42567;-72
2022/12/31 02:35:55;;;;;;;9.25;7.45;;;;;;;-146.25;100.00;52441.19;2080241;28;40128;-72
2022/12/31 02:37:00;;;;;;;8.05;7.22;;;;;;;-146.25;100.00;52487.81;2080544;28;40033;-72
2022/12/31 02:38:12;;;;;;;10.35;7.55;;;;;;;-146.25;100.00;52493.91;2079321;28;20046;-72
2022/12/31 02:39:15;;;;;;;8.55;7.28;;;;;;;-146.25;100.00;52459.44;2079944;28;41826;-72
2022/12/31 02:40:21;;;;;;;8.55;7.55;;;;;;;-146.25;100.00;52469.56;2079199;28;36937;-72
2022/12/31 02:42:43;;;;;;;8.23;7.35;;;;;;;-146.25;100.00;52483.78;2075053;28;38823;-72
2022/12/31 02:43:48;;;;;;;9.02;7.55;;;;;;;-146.25;100.00;52471.59;2080452;28;40126;-72
2022/12/31 02:44:50;;;;;;;8.40;7.50;;;;;;;-146.25;100.00;52451.31;2080700;28;39668;-71
2022/12/31 02:46:21;;;;;;;7.88;7.07;;;;;;;-146.25;100.00;52441.19;2080539;28;37065;-71
2022/12/31 02:47:31;;;;;;;10.02;6.90;;;;;;;-146.25;100.00;52455.38;2080653;28;37447;-72
2022/12/31 02:48:48;;;;;;;10.02;8.05;;;;;;;-146.25;100.00;52463.50;2079630;28;46095;-72
2022/12/31 02:50:31;;;;;;;9.95;7.25;;;;;;;-146.25;100.00;52491.88;2080783;28;21350;-72
2022/12/31 02:51:50;;;;;;;8.20;6.63;;;;;;;-146.25;100.00;52502.03;2080301;28;42037;-73
2022/12/31 02:53:23;;;;;;;8.13;7.22;;;;;;;-146.25;100.00;52481.75;2079429;28;41762;-73
2022/12/31 02:54:52;;;;;;;9.75;7.13;;;;;;;-146.25;100.00;52502.03;2079670;28;39893;-73
2022/12/31 02:56:21;;;;;;;8.88;6.95;;;;;;;-146.25;100.00;52461.47;2075333;28;21234;-72
2022/12/31 02:57:41;;;;;;;8.43;7.18;;;;;;;-146.25;100.00;52493.91;2078167;28;42126;-72
2022/12/31 03:02:12;;;;;;;8.90;6.63;;;;;;;-146.25;100.00;52453.34;2067789;28;39309;-73
2022/12/31 03:03:14;;;;;;;9.40;7.20;;;;;;;-146.25;100.00;52453.34;2066665;28;42826;-72
2022/12/31 03:04:32;;;;;;;8.60;7.00;;;;;;;-146.25;100.00;52489.84;2066482;28;26675;-72
2022/12/31 03:05:41;;;;;;;8.52;6.85;;;;;;;-146.25;100.00;52459.44;2066180;28;39936;-73
2022/12/31 03:06:43;;;;;;;8.82;6.80;;;;;;;-146.25;100.00;52453.34;2067479;28;20922;-73
2022/12/31 03:07:45;;;;;;;7.95;7.20;;;;;;;-146.25;100.00;52463.50;2071777;28;38610;-73
2022/12/31 03:10:11;;;;;;;11.10;6.65;;;;;;;-146.25;100.00;52453.34;2080065;28;40368;-73
2022/12/31 03:12:44;;;;;;;8.40;6.57;;;;;;;-146.25;100.00;52506.06;2080465;28;39850;-73
2022/12/31 03:12:45;;;;;;;6.97;6.05;;;;;;;-146.25;100.00;52445.25;2081648;28;20329;-73
2022/12/31 03:13:49;;;;;;;7.45;6.15;;;;;;;-146.25;100.00;52422.94;2080943;28;20042;-73
2022/12/31 03:14:51;;;;;;;7.47;6.30;;;;;;;-146.25;100.00;52483.78;2079887;28;37367;-73
2022/12/31 03:15:53;;;;;;;7.07;6.10;;;;;;;-146.25;100.00;52451.31;2079987;28;40362;-73
2022/12/31 03:16:54;;;;;;;7.70;6.15;;;;;;;-146.25;100.00;52453.34;2080468;28;36847;-73
2022/12/31 03:18:15;;;;;;;6.75;5.72;;;;;;;-146.25;100.00;52475.66;2079301;28;35583;-72
2022/12/31 03:23:34;;;;;;;7.50;5.57;;;;;;;-146.25;100.00;52459.44;2080165;28;39268;-72
2022/12/31 03:25:57;;;;;;;6.78;5.68;;;;;;;-146.25;100.00;52493.91;2080809;28;42912;-72
2022/12/31 03:27:01;;;;;;;7.10;5.47;;;;;;;-146.25;100.00;52481.75;2079759;28;39974;-72
2022/12/31 03:28:10;;;;;;;7.75;5.63;;;;;;;-146.25;100.00;52504.03;2077973;28;40661;-72
2022/12/31 03:29:11;;;;;;;6.65;5.13;;;;;;;-146.25;100.00;52461.47;2079799;28;41729;-72
2022/12/31 03:30:17;;;;;;;6.95;5.40;;;;;;;-146.25;100.00;52477.69;2078621;28;42124;-72
2022/12/31 03:31:18;;;;;;;6.40;4.82;;;;;;;-146.25;100.00;52457.41;2080215;28;39154;-72
2022/12/31 03:32:22;;;;;;;9.10;5.13;;;;;;;-146.25;100.00;52481.75;2080432;28;38853;-72
2022/12/31 03:33:29;;;;;;;6.57;5.40;;;;;;;-146.25;100.00;52493.91;2079780;28;37793;-72
2022/12/31 03:34:34;;;;;;;6.70;5.53;;;;;;;-146.25;100.00;52451.31;2081251;28;20041;-72
2022/12/31 03:35:41;;;;;;;6.07;5.43;;;;;;;-146.25;100.00;52481.75;2080536;28;20038;-74
2022/12/31 03:36:44;;;;;;;7.85;5.22;;;;;;;-146.25;100.00;52453.34;2079220;28;41648;-72
2022/12/31 03:37:48;;;;;;;7.88;5.45;;;;;;;-146.25;100.00;52457.41;2079444;28;36876;-72
2022/12/31 03:38:50;;;;;;;7.55;5.38;;;;;;;-146.25;100.00;52489.84;2072059;28;39726;-72
2022/12/31 03:39:53;;;;;;;8.30;5.05;;;;;;;-146.25;100.00;52477.69;2071396;28;39535;-72
2022/12/31 03:40:55;;;;;;;6.65;4.82;;;;;;;-146.25;100.00;52451.31;2072191;28;35971;-73
2022/12/31 03:41:59;;;;;;;7.88;4.78;;;;;;;-146.25;100.00;52497.97;2071805;28;39009;-72
2022/12/31 03:43:01;;;;;;;8.65;5.18;;;;;;;-146.25;100.00;52483.78;2071875;28;37875;-72
2022/12/31 03:44:02;;;;;;;5.55;4.97;;;;;;;-146.25;100.00;52443.22;2078913;28;36212;-72
2022/12/31 03:45:05;;;;;;;5.35;4.10;;;;;;;-146.25;100.00;52481.75;2079589;28;40476;-74
2022/12/31 03:46:07;;;;;;;6.53;4.93;;;;;;;-146.25;100.00;52475.66;2080317;28;20030;-72
2022/12/31 03:47:08;;;;;;;5.05;4.30;;;;;;;-146.25;100.00;52461.47;2080049;28;41981;-72
2022/12/31 03:48:11;;;;;;;5.78;4.30;;;;;;;-146.25;100.00;52427.00;2079460;28;33401;-72
2022/12/31 03:49:13;;;;;;;6.20;4.40;;;;;;;-146.25;100.00;52491.88;2079667;28;38348;-72
2022/12/31 03:50:19;;;;;;;7.10;4.57;;;;;;;-146.25;100.00;52457.41;2080556;28;20045;-72
2022/12/31 03:51:22;;;;;;;5.80;3.97;;;;;;;-146.25;100.00;52497.97;2080484;28;20042;-72
2022/12/31 03:52:24;;;;;;;5.32;3.85;;;;;;;-146.25;100.00;52487.81;2080416;28;23601;-72
2022/12/31 03:53:26;;;;;;;5.47;4.18;;;;;;;-146.25;100.00;52416.84;2080276;28;38897;-72
2022/12/31 03:54:28;;;;;;;6.63;4.18;;;;;;;-146.25;100.00;52473.63;2080825;28;20757;-73
2022/12/31 03:55:29;;;;;;;5.78;3.78;;;;;;;-146.25;100.00;52475.66;2079763;28;39227;-72
2022/12/31 03:56:31;;;;;;;4.15;3.53;;;;;;;-146.25;100.00;52506.06;2079137;28;37510;-73
2022/12/31 03:57:33;;;;;;;4.55;3.50;;;;;;;-146.25;100.00;52465.53;2079539;28;20862;-74
2022/12/31 03:58:35;;;;;;;5.35;3.67;;;;;;;-146.25;100.00;52451.31;2077111;28;34573;-74
2022/12/31 03:59:37;;;;;;;4.22;3.28;;;;;;;-146.25;100.00;52514.19;2078345;28;37924;-73
2022/12/31 04:00:38;;;;;;;4.63;3.35;;;;;;;-146.25;100.00;52443.22;2070042;28;34316;-73
2022/12/31 04:01:42;;;;;;;4.95;2.95;;;;;;;-146.25;100.00;52481.75;2071895;28;20244;-74
2022/12/31 04:02:46;;;;;;;4.22;3.20;;;;;;;-146.25;100.00;52455.38;2080303;28;20041;-73
2022/12/31 04:03:48;;;;;;;3.85;3.08;;;;;;;-146.25;100.00;52473.63;2079516;28;40238;-73
2022/12/31 04:04:50;;;;;;;3.58;2.90;;;;;;;-146.25;100.00;52485.81;2079371;28;38476;-74
2022/12/31 04:05:56;;;;;;;5.53;3.05;;;;;;;-146.25;100.00;52477.69;2080194;28;20034;-74
2022/12/31 04:06:58;;;;;;;3.33;2.75;;;;;;;-146.25;100.00;52467.56;2079114;28;37912;-74
2022/12/31 04:08:01;;;;;;;2.97;2.40;;;;;;;-146.25;100.00;52491.88;2079258;28;20057;-73
2022/12/31 04:09:03;;;;;;;5.03;2.53;;;;;;;-146.25;100.00;52457.41;2079594;28;36355;-74
2022/12/31 04:10:08;;;;;;;3.08;2.58;;;;;;;-146.25;100.00;52502.03;2078243;28;41799;-74
2022/12/31 04:11:09;;;;;;;4.72;2.53;;;;;;;-146.25;100.00;52471.59;2078755;28;38547;-73
2022/12/31 04:12:14;;;;;;;4.03;2.60;;;;;;;-146.25;100.00;52469.56;2080319;28;20097;-73
2022/12/31 04:13:15;;;;;;;4.32;2.38;;;;;;;-146.25;100.00;52465.53;2079443;28;35261;-74
2022/12/31 04:14:17;;;;;;;5.80;2.47;;;;;;;-146.25;100.00;52491.88;2079095;28;38592;-74
2022/12/31 04:15:20;;;;;;;5.05;2.45;;;;;;;-146.25;100.00;52441.19;2078811;28;38650;-74
2022/12/31 04:16:22;;;;;;;4.45;2.30;;;;;;;-146.25;100.00;52465.53;2078920;28;42182;-74
2022/12/31 04:17:25;;;;;;;2.88;2.10;;;;;;;-146.25;100.00;52477.69;2079038;28;34293;-74
2022/12/31 04:18:28;;;;;;;4.25;2.00;;;;;;;-146.25;100.00;52433.06;2078420;28;38929;-74
2022/12/31 04:19:33;;;;;;;2.30;1.73;;;;;;;-146.25;100.00;52473.63;2079099;28;39850;-73
2022/12/31 04:20:34;;;;;;;3.22;1.55;;;;;;;-146.25;100.00;52471.59;2079830;28;20907;-74
2022/12/31 04:21:36;;;;;;;3.17;1.67;;;;;;;-146.25;100.00;52473.63;2078926;28;39798;-74
2022/12/31 04:22:38;;;;;;;3.20;1.77;;;;;;;-146.25;100.00;52485.81;2079501;28;20052;-73
2022/12/31 04:23:40;;;;;;;2.10;1.50;;;;;;;-146.25;100.00;52469.56;2077674;28;37904;-73
2022/12/31 04:24:42;;;;;;;2.05;1.67;;;;;;;-146.25;100.00;52483.78;2079039;28;38480;-74
2022/12/31 04:25:43;;;;;;;2.08;1.48;;;;;;;-146.25;100.00;52455.38;2078512;28;36131;-74
2022/12/31 04:26:47;;;;;;;2.10;1.60;;;;;;;-146.25;100.00;52493.91;2079314;28;41529;-73
2022/12/31 04:27:49;;;;;;;3.13;1.52;;;;;;;-146.25;100.00;52469.56;2078602;28;39759;-74
2022/12/31 04:28:51;;;;;;;2.83;1.33;;;;;;;-146.25;100.00;52439.16;2081807;28;20038;-73
2022/12/31 04:29:54;;;;;;;4.88;1.52;;;;;;;-146.25;100.00;52475.66;2080292;28;20140;-74
2022/12/31 04:30:57;;;;;;;1.45;1.00;;;;;;;-146.25;100.00;52497.97;2080628;28;20046;-74
2022/12/31 04:31:59;;;;;;;1.40;0.88;;;;;;;-146.25;100.00;52489.84;2078726;28;36511;-74
2022/12/31 04:33:01;;;;;;;1.90;1.20;;;;;;;-146.25;100.00;52487.81;2079817;28;42118;-74
2022/12/31 04:34:02;;;;;;;1.45;1.20;;;;;;;-146.25;100.00;52469.56;2079432;28;41620;-74
2022/12/31 04:35:05;;;;;;;2.92;1.02;;;;;;;-146.25;100.00;52467.56;2079685;28;37623;-74
2022/12/31 04:36:07;;;;;;;4.22;1.60;;;;;;;-146.25;100.00;52473.63;2080241;28;37718;-74
2022/12/31 04:37:09;;;;;;;3.35;1.08;;;;;;;-146.25;100.00;52475.66;2078830;28;38823;-74
2022/12/31 04:38:11;;;;;;;1.55;0.93;;;;;;;-146.25;100.00;52433.06;2078082;28;38578;-73
2022/12/31 04:39:12;;;;;;;1.75;1.02;;;;;;;-146.25;100.00;52461.47;2079150;28;36947;-74
2022/12/31 04:40:14;;;;;;;1.45;1.10;;;;;;;-146.25;100.00;52483.78;2080278;28;21251;-73
2022/12/31 04:41:16;;;;;;;2.33;0.93;;;;;;;-146.25;100.00;52451.31;2079828;28;40872;-74
2022/12/31 04:42:18;;;;;;;1.42;0.77;;;;;;;-146.25;100.00;52493.91;2079636;28;38158;-74
2022/12/31 04:43:19;;;;;;;1.55;0.70;;;;;;;-146.25;100.00;52510.13;2079584;28;33542;-74
2022/12/31 04:44:21;;;;;;;1.45;0.90;;;;;;;-146.25;100.00;52475.66;2079905;28;38136;-73
2022/12/31 04:45:23;;;;;;;1.85;0.63;;;;;;;-146.25;100.00;52497.97;2081018;28;20876;-74
2022/12/31 04:46:31;;;;;;;1.00;0.90;;;;;;;-146.25;100.00;52461.47;2080300;28;29372;-74
2022/12/31 04:47:33;;;;;;;1.25;0.88;;;;;;;-146.25;100.00;52463.50;2079434;28;35571;-74
2022/12/31 04:48:34;;;;;;;2.05;0.73;;;;;;;-146.25;100.00;52504.03;2078618;28;37588;-73
2022/12/31 04:49:36;;;;;;;1.17;0.60;;;;;;;-146.25;100.00;52485.81;2079677;28;37395;-74
2022/12/31 04:50:38;;;;;;;1.25;0.90;;;;;;;-146.25;100.00;52465.53;2077961;28;38672;-74
2022/12/31 04:51:40;;;;;;;3.85;0.70;;;;;;;-146.25;100.00;52495.94;2079636;28;39853;-73
2022/12/31 04:52:41;;;;;;;1.45;0.90;;;;;;;-146.25;100.00;52457.41;2079696;28;40459;-74
2022/12/31 04:53:44;;;;;;;2.00;0.73;;;;;;;-146.25;100.00;52502.03;2079449;28;38954;-73
2022/12/31 04:54:45;;;;;;;1.30;0.70;;;;;;;-146.25;100.00;52497.97;2079873;28;33584;-73
2022/12/31 04:55:47;;;;;;;1.70;0.60;;;;;;;-146.25;100.00;52502.03;2079750;28;38077;-73
2022/12/31 04:56:49;;;;;;;1.63;0.70;;;;;;;-146.25;100.00;52461.47;2079944;28;21613;-74
2022/12/31 04:57:53;;;;;;;1.38;0.60;;;;;;;-146.25;100.00;52508.09;2079938;28;38748;-73
2022/12/31 04:58:55;;;;;;;3.42;0.65;;;;;;;-146.25;100.00;52469.56;2079233;28;37544;-74
2022/12/31 04:59:57;;;;;;;1.30;0.70;;;;;;;-146.25;100.00;52473.63;2081016;28;39915;-74
2022/12/31 05:00:58;;;;;;;3.88;0.63;;;;;;;-146.25;100.00;52483.78;2079430;28;40272;-74
2022/12/31 05:02:00;;;;;;;1.10;0.77;;;;;;;-146.25;100.00;52497.97;2079459;28;40810;-73
2022/12/31 05:03:02;;;;;;;2.55;0.60;;;;;;;-146.25;100.00;52435.09;2079570;28;38498;-73
2022/12/31 05:04:04;;;;;;;2.67;0.90;;;;;;;-146.25;100.00;52461.47;2079595;28;38430;-73
2022/12/31 05:05:08;;;;;;;2.03;0.50;;;;;;;-146.25;100.00;52461.47;2079506;28;42228;-74
2022/12/31 05:06:17;;;;;;;2.70;0.57;;;;;;;-146.25;100.00;52461.47;2079672;28;36791;-73
2022/12/31 05:07:19;;;;;;;1.40;0.68;;;;;;;-146.25;100.00;52493.91;2079611;28;39532;-74
2022/12/31 05:08:21;;;;;;;3.00;0.80;;;;;;;-146.25;100.00;52485.81;2078778;28;38659;-73
2022/12/31 05:09:26;;;;;;;2.50;0.80;;;;;;;-146.25;100.00;52457.41;2080436;28;20046;-73
2022/12/31 05:10:28;;;;;;;1.23;0.50;;;;;;;-146.25;100.00;52479.72;2079214;28;43466;-73
2022/12/31 05:11:30;;;;;;;0.82;0.55;;;;;;;-146.25;100.00;52510.13;2079510;28;36558;-73